createdAt,value
2022-12-16T00:00:28.871Z,54.76
2022-12-16T00:03:01.709Z,54.62
2022-12-16T00:05:33.059Z,55.03
2022-12-16T00:08:09.020Z,54.97
2022-12-16T00:10:59.103Z,54.72
2022-12-16T00:13:36.242Z,55.09
2022-12-16T00:16:18.873Z,54.71
2022-12-16T00:18:48.960Z,54.90
2022-12-16T00:21:22.901Z,54.39
2022-12-16T00:24:02.901Z,54.90
2022-12-16T00:26:43.069Z,54.78
2022-12-16T00:29:13.074Z,54.92
2022-12-16T00:31:43.231Z,54.76
2022-12-16T00:37:03.643Z,54.88
2022-12-16T00:40:08.796Z,55.10
2022-12-16T00:42:47.276Z,55.16
2022-12-16T00:45:20.358Z,54.75
2022-12-16T00:47:51.920Z,54.91
2022-12-16T00:50:22.973Z,54.75
2022-12-16T00:52:56.131Z,55.06
2022-12-16T00:55:28.292Z,54.68
2022-12-16T00:58:04.100Z,54.92
2022-12-16T01:00:42.247Z,55.17
2022-12-16T01:03:19.394Z,54.58
2022-12-16T01:05:51.756Z,54.69
2022-12-16T01:08:27.253Z,54.69
2022-12-16T01:11:22.224Z,55.16
2022-12-16T01:14:02.130Z,54.99
2022-12-16T01:16:37.187Z,54.74
2022-12-16T01:19:15.322Z,55.33
2022-12-16T01:21:44.617Z,55.22
2022-12-16T01:24:21.295Z,55.57
2022-12-16T01:26:54.925Z,55.51
2022-12-16T01:29:25.958Z,55.57
2022-12-16T01:31:55.032Z,55.61
2022-12-16T01:34:26.518Z,55.68
2022-12-16T01:37:01.747Z,55.91
2022-12-16T01:39:31.676Z,55.96
2022-12-16T01:42:05.486Z,55.65
2022-12-16T01:44:43.529Z,55.43
2022-12-16T01:50:18.471Z,55.79
2022-12-16T01:52:50.791Z,55.53
2022-12-16T01:55:37.928Z,55.03
2022-12-16T01:58:25.846Z,55.50
2022-12-16T02:01:02.456Z,55.58
2022-12-16T02:03:43.307Z,55.37
2022-12-16T02:06:14.837Z,55.19
2022-12-16T02:08:43.914Z,55.79
2022-12-16T02:14:55.272Z,55.47
2022-12-16T02:17:35.592Z,55.34
2022-12-16T02:20:36.154Z,54.96
2022-12-16T02:23:40.114Z,55.31
2022-12-16T02:26:47.895Z,55.25
2022-12-16T02:33:17.282Z,55.62
2022-12-16T02:35:52.227Z,55.55
2022-12-16T02:38:28.026Z,55.18
2022-12-16T02:41:01.118Z,55.65
2022-12-16T02:46:39.412Z,55.51
2022-12-16T02:49:32.816Z,55.94
2022-12-16T02:52:05.739Z,55.72
2022-12-16T02:54:35.202Z,55.84
2022-12-16T02:57:12.903Z,55.27
2022-12-16T02:59:56.055Z,55.36
2022-12-16T03:02:32.857Z,55.75
2022-12-16T03:05:10.434Z,55.54
2022-12-16T03:07:42.124Z,55.56
2022-12-16T03:10:15.128Z,55.58
2022-12-16T03:12:55.472Z,55.26
2022-12-16T03:15:26.030Z,55.32
2022-12-16T03:20:57.555Z,55.34
2022-12-16T03:23:30.924Z,55.53
2022-12-16T03:26:19.537Z,55.27
2022-12-16T03:29:02.145Z,55.00
2022-12-16T03:31:45.775Z,55.21
2022-12-16T03:37:17.047Z,55.46
2022-12-16T03:39:50.019Z,55.56
2022-12-16T03:42:27.863Z,55.51
2022-12-16T03:44:59.764Z,55.71
2022-12-16T03:47:40.931Z,55.69
2022-12-16T03:50:12.509Z,55.63
2022-12-16T03:52:52.395Z,55.90
2022-12-16T03:55:23.407Z,55.91
2022-12-16T03:57:53.469Z,56.04
2022-12-16T04:03:13.353Z,56.04
2022-12-16T04:05:46.582Z,55.71
2022-12-16T04:11:27.650Z,55.62
2022-12-16T04:14:15.241Z,55.88
2022-12-16T04:17:12.427Z,55.44
2022-12-16T04:20:00.709Z,55.50
2022-12-16T04:23:18.298Z,55.92
2022-12-16T04:28:39.438Z,55.60
2022-12-16T04:31:08.954Z,55.45
2022-12-16T04:37:13.869Z,55.86
2022-12-16T04:40:01.235Z,55.65
2022-12-16T04:45:58.244Z,55.69
2022-12-16T04:48:46.482Z,55.93
2022-12-16T04:54:34.698Z,55.21
2022-12-16T04:57:34.085Z,55.64
2022-12-16T05:00:23.849Z,55.75
2022-12-16T05:03:15.761Z,55.43
2022-12-16T05:06:02.063Z,55.89
2022-12-16T05:08:52.323Z,55.97
2022-12-16T05:11:40.120Z,55.73
2022-12-16T05:14:27.519Z,55.93
2022-12-16T05:17:26.515Z,55.60
2022-12-16T05:20:14.630Z,55.51
2022-12-16T05:23:01.525Z,55.79
2022-12-16T05:25:48.420Z,55.90
2022-12-16T05:28:41.811Z,55.60
2022-12-16T05:34:41.128Z,54.93
2022-12-16T05:37:32.222Z,55.46
2022-12-16T05:40:45.728Z,55.68
2022-12-16T05:43:35.847Z,55.63
2022-12-16T05:46:32.936Z,55.25
2022-12-16T05:49:24.381Z,55.38
2022-12-16T05:52:12.151Z,55.49
2022-12-16T05:54:58.880Z,55.10
2022-12-16T05:58:18.143Z,55.62
2022-12-16T06:01:04.906Z,55.52
2022-12-16T06:04:01.256Z,55.45
2022-12-16T06:06:54.265Z,55.37
2022-12-16T06:09:42.929Z,55.28
2022-12-16T06:12:31.694Z,55.46
2022-12-16T06:15:18.820Z,55.43
2022-12-16T06:18:08.154Z,55.14
2022-12-16T06:24:13.762Z,55.11
2022-12-16T06:30:09.893Z,55.12
2022-12-16T06:33:05.659Z,55.12
2022-12-16T06:35:55.260Z,55.03
2022-12-16T06:38:48.142Z,55.44
2022-12-16T06:41:37.127Z,55.51
2022-12-16T06:44:30.215Z,55.82
2022-12-16T06:47:17.016Z,55.68
2022-12-16T06:50:04.754Z,55.11
2022-12-16T06:52:51.910Z,55.39
2022-12-16T06:55:41.564Z,55.30
2022-12-16T06:58:31.820Z,55.47
2022-12-16T07:01:33.199Z,55.35
2022-12-16T07:04:20.628Z,55.12
2022-12-16T07:07:07.335Z,55.30
2022-12-16T07:09:54.890Z,55.52
2022-12-16T07:12:55.294Z,55.84
2022-12-16T07:15:42.927Z,55.85
2022-12-16T07:18:30.131Z,55.71
2022-12-16T07:21:16.271Z,55.81
2022-12-16T07:24:04.120Z,56.04
2022-12-16T07:26:50.750Z,55.76
2022-12-16T07:29:41.784Z,55.65
2022-12-16T07:32:31.769Z,55.92
2022-12-16T07:35:27.650Z,55.73
2022-12-16T07:38:17.334Z,55.72
2022-12-16T07:41:06.582Z,55.73
2022-12-16T07:43:58.344Z,56.09
2022-12-16T07:46:46.149Z,56.20
2022-12-16T07:49:32.260Z,56.17
2022-12-16T07:52:21.406Z,56.29
2022-12-16T07:55:09.758Z,56.15
2022-12-16T07:57:56.742Z,56.49
2022-12-16T08:00:46.675Z,56.20
2022-12-16T08:03:34.686Z,55.83
2022-12-16T08:06:25.240Z,56.02
2022-12-16T08:09:17.962Z,56.40
2022-12-16T08:12:07.143Z,55.93
2022-12-16T08:14:54.042Z,56.01
2022-12-16T08:17:44.673Z,56.48
2022-12-16T08:20:37.927Z,56.62
2022-12-16T08:23:36.845Z,56.67
2022-12-16T08:26:26.612Z,56.49
2022-12-16T08:29:43.060Z,56.15
2022-12-16T08:32:26.625Z,56.50
2022-12-16T08:35:19.530Z,56.45
2022-12-16T08:38:14.513Z,56.34
2022-12-16T08:44:05.697Z,56.51
2022-12-16T08:46:58.613Z,56.37
2022-12-16T08:49:54.773Z,56.44
2022-12-16T08:52:56.789Z,56.51
2022-12-16T08:55:44.293Z,56.36
2022-12-16T08:58:32.014Z,56.59
2022-12-16T09:01:24.216Z,56.34
2022-12-16T09:04:12.460Z,56.35
2022-12-16T09:07:03.120Z,56.66
2022-12-16T09:09:54.247Z,56.35
2022-12-16T09:12:41.131Z,56.30
2022-12-16T09:18:40.437Z,56.61
2022-12-16T09:21:36.816Z,56.69
2022-12-16T09:24:30.571Z,56.63
2022-12-16T09:27:17.070Z,56.47
2022-12-16T09:30:06.007Z,56.44
2022-12-16T09:33:03.061Z,56.62
2022-12-16T09:35:59.226Z,56.57
2022-12-16T09:38:46.477Z,56.75
2022-12-16T09:41:55.579Z,56.36
2022-12-16T09:44:46.439Z,56.42
2022-12-16T09:47:58.324Z,56.91
2022-12-16T09:51:06.825Z,56.18
2022-12-16T09:54:09.819Z,56.72
2022-12-16T09:57:10.809Z,56.51
2022-12-16T10:00:10.704Z,56.70
2022-12-16T10:03:08.858Z,57.18
2022-12-16T10:06:09.639Z,56.81
2022-12-16T10:09:03.363Z,57.12
2022-12-16T10:15:25.628Z,56.74
2022-12-16T10:18:22.426Z,56.75
2022-12-16T10:21:27.956Z,56.91
2022-12-16T10:24:48.252Z,56.97
2022-12-16T10:27:42.906Z,57.03
2022-12-16T10:30:43.117Z,57.16
2022-12-16T10:33:54.995Z,57.70
2022-12-16T10:36:48.891Z,56.88
2022-12-16T10:39:49.141Z,57.39
2022-12-16T10:42:43.403Z,57.40
2022-12-16T10:45:49.731Z,57.48
2022-12-16T10:48:36.981Z,57.61
2022-12-16T10:51:31.920Z,57.11
2022-12-16T10:54:52.692Z,57.70
2022-12-16T10:57:55.408Z,57.43
2022-12-16T11:01:03.245Z,57.30
2022-12-16T11:04:12.024Z,57.59
2022-12-16T11:14:03.330Z,57.58
2022-12-16T11:17:27.491Z,57.74
2022-12-16T11:20:26.924Z,57.73
2022-12-16T11:23:36.681Z,57.57
2022-12-16T11:26:35.881Z,57.51
2022-12-16T11:33:12.305Z,58.42
2022-12-16T11:36:28.817Z,57.53
2022-12-16T11:39:19.686Z,57.70
2022-12-16T11:42:07.112Z,57.54
2022-12-16T11:44:59.703Z,57.20
2022-12-16T11:48:04.490Z,57.51
2022-12-16T11:51:48.880Z,57.07
2022-12-16T11:54:41.018Z,57.21
2022-12-16T11:57:42.367Z,57.54
2022-12-16T12:00:44.892Z,57.86
2022-12-16T12:03:35.763Z,57.77
2022-12-16T12:06:28.159Z,57.19
2022-12-16T12:09:21.133Z,57.55
2022-12-16T12:12:49.432Z,58.04
2022-12-16T12:15:43.357Z,57.60
2022-12-16T12:18:54.742Z,57.46
2022-12-16T12:22:01.521Z,57.90
2022-12-16T12:25:01.152Z,57.21
2022-12-16T12:28:04.781Z,57.66
2022-12-16T12:31:27.331Z,57.96
2022-12-16T12:34:49.679Z,57.47
2022-12-16T12:38:42.184Z,57.24
2022-12-16T13:02:31.478Z,57.45
2022-12-16T13:13:10.709Z,57.04
2022-12-16T13:19:55.534Z,57.07
2022-12-16T13:26:25.758Z,56.82
2022-12-16T13:29:38.957Z,56.41
2022-12-16T13:32:36.046Z,56.56
2022-12-16T13:35:22.679Z,56.50
2022-12-16T13:38:16.759Z,56.20
2022-12-16T13:41:13.082Z,56.15
2022-12-16T13:44:07.658Z,56.54
2022-12-16T13:47:02.811Z,56.43
2022-12-16T13:50:13.800Z,56.22
2022-12-16T13:53:07.280Z,56.15
2022-12-16T13:55:57.262Z,56.14
2022-12-16T13:58:51.382Z,55.92
2022-12-16T14:01:39.986Z,55.71
2022-12-16T14:04:35.590Z,55.77
2022-12-16T14:07:29.441Z,55.71
2022-12-16T14:11:32.957Z,55.52
2022-12-16T14:15:14.692Z,55.88
2022-12-16T14:26:42.668Z,55.54
2022-12-16T14:29:47.971Z,55.61
2022-12-16T14:33:18.206Z,55.54
2022-12-16T14:40:28.424Z,55.26
2022-12-16T14:47:45.439Z,55.24
2022-12-16T14:55:31.123Z,55.37
2022-12-16T15:02:24.115Z,55.32
2022-12-16T15:13:24.299Z,55.21
2022-12-16T15:23:55.157Z,55.38
2022-12-16T15:27:41.786Z,55.44
2022-12-16T15:31:02.542Z,54.91
2022-12-16T15:34:40.402Z,55.30
2022-12-16T15:50:02.125Z,55.66
2022-12-16T17:05:03.308Z,56.95
2022-12-16T17:54:53.737Z,56.85
2022-12-16T18:23:26.082Z,56.94
2022-12-16T18:46:58.282Z,56.73
2022-12-16T18:53:56.992Z,57.33
2022-12-16T19:05:11.127Z,57.19
2022-12-16T20:49:26.995Z,57.80
2022-12-16T20:58:33.122Z,58.02
2022-12-16T21:23:10.163Z,57.40
2022-12-16T23:07:46.553Z,58.21
2022-12-16T23:11:04.181Z,58.44
